Airfield :
LOGIN :

Register | Disclaimer

   EN    FR    IT 

 










Legend :    VFR   Marginal VFR   IFR   Intensive IFR   Very Intensive IFR
Visi :
Ceiling :
>= 8 km
>= 3000ft
5 to 8 km
1000 to 3000 ft
1500m to 5 km
500 to 1000 ft
800 to 1500m
200 to 500 ft
< 800m
< 200 ft
Symbols :   Thunderstorms  Fog  Heavy snow  Heavy precipitations  Wind > 20 kt
SIGMETs :     Misc.  Thunderstorms  Icing  Turbulence  Mountain Waves  Volcanic Ashes






- Airport Elevation : 2096 ft
- IATA code : AUR


LFLW - Aurillac

CURRENT METAR :
  • 280700Z AUTO 23004KT 190V260 9999 OVC008/// ///CB 07/06 Q1015 TEMPO 3000 SHRA BKN003 SCT020TCU

EXPIRED METARs :
  • 280630Z AUTO VRB02KT 7000 -RA FEW008/// BKN013/// OVC020/// ///TCU 07/06 Q1015 TEMPO 3000 SHRA BKN003 SCT020TCU
  • 280600Z AUTO VRB02KT 8000 RA FEW008/// BKN017/// BKN026/// ///TCU 07/06 Q1015 TEMPO 3000 SHRA BKN003 SCT020TCU
  • 280530Z AUTO 26003KT 220V300 9999 -RA FEW018/// BKN034/// OVC062/// ///TCU 07/06 Q1015 TEMPO 3000 SHRA BKN003 SCT020TCU
  • 280500Z AUTO VRB03KT 9999 -RADZ FEW016/// SCT054/// BKN072/// ///TCU 07/06 Q1015
  • 280430Z AUTO 24008KT 210V280 9999 -RA BKN005/// BKN010/// BKN015/// ///TCU 07/06 Q1015

TAF AMD TAF LFLW
Valid from the 28 at 06:00 until the 28 at 15:00 UTC


280600Z 2806/2815 27008KT 9999 FEW010 BKN020
TEMPO 2806/2811 3000 SHRA BKN003 SCT020TCU
TEMPO 2813/2815 VRB15G25KT 3000 SHRA FEW020CB BKN023TCU



MET'MAP, your aeronautical weather chart ! - Copyright ORBIFLY December 2007 - Disclaimer

ORBIFLY MET'MAP TEAM :

Programming & Development : Alexandra Zaïnal
Original concept : Baudouin d'Aumeries
Technical & hardware support : Manuel Goepfert
Assistance : Marc-Olivier Méhu




SOURCES & CREDITS :

   NOAA